sensor_id;sensor_type;location;lat;lon;timestamp;pressure;altitude;pressure_sealevel;temperature;humidity
71565;BME280;59397;50.952;14.502;2022-10-18T00:10:19;981.01;;;11.70;100.00
71565;BME280;59397;50.952;14.502;2022-10-18T00:29:51;981.00;;;11.71;100.00
71565;BME280;59397;50.952;14.502;2022-10-18T00:49:24;980.86;;;11.50;100.00
71565;BME280;59397;50.952;14.502;2022-10-18T01:08:57;980.76;;;11.20;100.00
71565;BME280;59397;50.952;14.502;2022-10-18T01:28:30;980.75;;;11.47;100.00
71565;BME280;59397;50.952;14.502;2022-10-18T01:47:52;980.70;;;11.07;100.00
71565;BME280;59397;50.952;14.502;2022-10-18T02:07:28;980.72;;;10.83;100.00
71565;BME280;59397;50.952;14.502;2022-10-18T02:26:53;980.66;;;10.72;100.00
71565;BME280;59397;50.952;14.502;2022-10-18T02:46:26;980.85;;;10.72;100.00
71565;BME280;59397;50.952;14.502;2022-10-18T03:05:57;980.80;;;10.76;100.00
71565;BME280;59397;50.952;14.502;2022-10-18T03:25:28;980.83;;;10.48;100.00
71565;BME280;59397;50.952;14.502;2022-10-18T03:44:56;980.78;;;10.17;100.00
71565;BME280;59397;50.952;14.502;2022-10-18T04:04:27;980.78;;;10.11;100.00
71565;BME280;59397;50.952;14.502;2022-10-18T04:23:56;980.60;;;9.41;100.00
71565;BME280;59397;50.952;14.502;2022-10-18T04:43:28;980.67;;;8.55;100.00
71565;BME280;59397;50.952;14.502;2022-10-18T05:02:58;980.62;;;8.09;100.00
71565;BME280;59397;50.952;14.502;2022-10-18T05:22:30;980.64;;;8.46;100.00
71565;BME280;59397;50.952;14.502;2022-10-18T05:42:00;980.71;;;9.54;100.00
71565;BME280;59397;50.952;14.502;2022-10-18T06:01:35;980.63;;;10.25;100.00
71565;BME280;59397;50.952;14.502;2022-10-18T06:21:07;980.77;;;10.48;100.00
71565;BME280;59397;50.952;14.502;2022-10-18T06:40:38;980.67;;;10.96;100.00
71565;BME280;59397;50.952;14.502;2022-10-18T07:00:12;980.46;;;11.19;100.00
71565;BME280;59397;50.952;14.502;2022-10-18T07:19:41;980.49;;;11.31;100.00
71565;BME280;59397;50.952;14.502;2022-10-18T07:39:14;980.08;;;12.18;100.00
71565;BME280;59397;50.952;14.502;2022-10-18T07:58:48;980.24;;;12.74;100.00
71565;BME280;59397;50.952;14.502;2022-10-18T08:18:18;980.18;;;13.38;100.00
71565;BME280;59397;50.952;14.502;2022-10-18T08:37:47;979.93;;;13.58;100.00
71565;BME280;59397;50.952;14.502;2022-10-18T08:57:18;979.90;;;13.56;100.00
71565;BME280;59397;50.952;14.502;2022-10-18T09:16:49;979.85;;;13.53;100.00
71565;BME280;59397;50.952;14.502;2022-10-18T09:36:21;979.61;;;13.72;100.00
71565;BME280;59397;50.952;14.502;2022-10-18T09:55:56;979.54;;;14.10;99.87
71565;BME280;59397;50.952;14.502;2022-10-18T10:15:25;979.37;;;14.79;100.00
71565;BME280;59397;50.952;14.502;2022-10-18T10:34:59;979.15;;;14.76;96.79
71565;BME280;59397;50.952;14.502;2022-10-18T10:54:31;978.86;;;14.98;97.92
71565;BME280;59397;50.952;14.502;2022-10-18T11:14:07;978.63;;;15.57;96.14
71565;BME280;59397;50.952;14.502;2022-10-18T11:33:37;978.65;;;14.92;98.82
71565;BME280;59397;50.952;14.502;2022-10-18T11:53:04;978.90;;;14.17;100.00
71565;BME280;59397;50.952;14.502;2022-10-18T12:12:29;979.55;;;12.83;100.00
71565;BME280;59397;50.952;14.502;2022-10-18T12:32:00;979.38;;;12.69;100.00
71565;BME280;59397;50.952;14.502;2022-10-18T12:51:31;979.45;;;12.56;100.00
71565;BME280;59397;50.952;14.502;2022-10-18T13:30:37;979.60;;;13.21;100.00
71565;BME280;59397;50.952;14.502;2022-10-18T14:09:36;979.85;;;13.11;100.00
71565;BME280;59397;50.952;14.502;2022-10-18T14:48:38;979.61;;;12.97;100.00
71565;BME280;59397;50.952;14.502;2022-10-18T15:08:11;979.64;;;13.10;100.00
71565;BME280;59397;50.952;14.502;2022-10-18T15:27:44;979.65;;;13.06;100.00
71565;BME280;59397;50.952;14.502;2022-10-18T15:47:15;979.64;;;12.90;100.00
71565;BME280;59397;50.952;14.502;2022-10-18T16:06:43;979.84;;;12.63;100.00
71565;BME280;59397;50.952;14.502;2022-10-18T16:26:13;980.25;;;12.57;100.00
71565;BME280;59397;50.952;14.502;2022-10-18T16:45:36;980.46;;;12.32;100.00
71565;BME280;59397;50.952;14.502;2022-10-18T17:05:07;980.54;;;12.23;100.00
71565;BME280;59397;50.952;14.502;2022-10-18T17:24:38;980.61;;;12.08;100.00
71565;BME280;59397;50.952;14.502;2022-10-18T17:44:08;980.78;;;12.08;100.00
71565;BME280;59397;50.952;14.502;2022-10-18T18:03:42;980.74;;;11.79;100.00
71565;BME280;59397;50.952;14.502;2022-10-18T18:23:05;980.72;;;11.06;100.00
71565;BME280;59397;50.952;14.502;2022-10-18T18:42:36;980.73;;;11.14;100.00
71565;BME280;59397;50.952;14.502;2022-10-18T19:02:08;980.65;;;10.69;100.00
71565;BME280;59397;50.952;14.502;2022-10-18T19:21:39;980.81;;;10.78;100.00
71565;BME280;59397;50.952;14.502;2022-10-18T19:41:12;980.68;;;11.40;100.00
71565;BME280;59397;50.952;14.502;2022-10-18T20:00:43;980.84;;;11.48;100.00
71565;BME280;59397;50.952;14.502;2022-10-18T20:20:15;980.98;;;11.64;100.00
71565;BME280;59397;50.952;14.502;2022-10-18T20:39:45;980.87;;;11.31;100.00
71565;BME280;59397;50.952;14.502;2022-10-18T20:59:16;980.93;;;10.99;100.00
71565;BME280;59397;50.952;14.502;2022-10-18T21:18:47;980.95;;;11.26;100.00
71565;BME280;59397;50.952;14.502;2022-10-18T21:38:18;980.89;;;11.01;100.00
71565;BME280;59397;50.952;14.502;2022-10-18T21:57:48;981.03;;;10.69;100.00
71565;BME280;59397;50.952;14.502;2022-10-18T22:17:20;980.97;;;10.83;100.00
71565;BME280;59397;50.952;14.502;2022-10-18T22:36:50;980.79;;;10.93;100.00
71565;BME280;59397;50.952;14.502;2022-10-18T22:56:21;980.63;;;10.70;100.00
71565;BME280;59397;50.952;14.502;2022-10-18T23:15:52;980.51;;;10.63;100.00
71565;BME280;59397;50.952;14.502;2022-10-18T23:35:23;980.64;;;10.49;100.00
71565;BME280;59397;50.952;14.502;2022-10-18T23:54:54;980.51;;;10.01;100.00
